Terminal Aerodrome Forecast
Issued by NWS

Home | Current Version | Previous Version | Text Only | Print | Product List | Glossary On
Versions: 1 2 3 4 5 6 7 8 9 10 11 12 13 14 15 16
000
FTUS43 KJKL 300544 CCA
TAFSME
TAF COR
KSME 300544Z 3006/3106 VRB03KT 6SM BR FEW040 SCT250
     FM301200 VRB03KT P6SM SCT035
     FM301800 27006KT P6SM VCSH FEW045 SCT200
     FM310200 VRB03KT P6SM SCT150=

USA.gov is the U.S. government's official web portal to all federal, state and local government web resources and services.